RYR90RC LGKR-LIME
Flight info
| Callsign | RYR90RC |
|---|---|
| Flight time | 1h 38m |
| Altitude | 38000 |
| Route | OLGAT DCT OKIMO DCT ENOXA DCT GARGA DCT ANC DCT BOA DCT OGPUD DCT BETMU DCT OSBUL |
| Aircraft | B738/M-SDE3FGILRWY/SB1 |
Departure
| Time | 2026-04-30 05:09 |
|---|---|
| Airport | Corfu Ioannis Kapodistrias International Airport (LGKR) |
Arrival
| Time | 2026-04-30 06:47 |
|---|---|
| Airport | Il Caravaggio International Airport (LIME) |
| Time | Latitude | Longitude | Altitude | Speed | Heading |
|---|---|---|---|---|---|
| 2026-04-30 04:41 | 39.60871 | 19.91219 | 14 ft | 0 kts | 77° |
| 2026-04-30 05:01 | 39.60870 | 19.91208 | 14 ft | 2 kts | 81° |
| 2026-04-30 05:01 | 39.60868 | 19.91186 | 17 ft | 2 kts | 98° |
| 2026-04-30 05:02 | 39.60877 | 19.91169 | 15 ft | 2 kts | 161° |
| 2026-04-30 05:02 | 39.60884 | 19.91167 | 16 ft | 0 kts | 167° |
| 2026-04-30 05:02 | 39.60885 | 19.91167 | 16 ft | 0 kts | 167° |
| 2026-04-30 05:04 | 39.60881 | 19.91167 | 15 ft | 2 kts | 167° |
| 2026-04-30 05:04 | 39.60852 | 19.91176 | 15 ft | 7 kts | 167° |
| 2026-04-30 05:04 | 39.60784 | 19.91195 | 13 ft | 13 kts | 167° |
| 2026-04-30 05:04 | 39.60678 | 19.91222 | 13 ft | 18 kts | 175° |
| 2026-04-30 05:05 | 39.60545 | 19.91174 | 13 ft | 22 kts | 200° |
| 2026-04-30 05:05 | 39.60382 | 19.91163 | 14 ft | 25 kts | 168° |
| 2026-04-30 05:05 | 39.60209 | 19.91210 | 15 ft | 25 kts | 168° |
| 2026-04-30 05:06 | 39.59888 | 19.91295 | 16 ft | 23 kts | 168° |
| 2026-04-30 05:06 | 39.59736 | 19.91332 | 15 ft | 22 kts | 169° |
| 2026-04-30 05:06 | 39.59589 | 19.91369 | 12 ft | 21 kts | 169° |
| 2026-04-30 05:06 | 39.59446 | 19.91404 | 12 ft | 21 kts | 169° |
| 2026-04-30 05:07 | 39.59306 | 19.91434 | 12 ft | 20 kts | 171° |
| 2026-04-30 05:07 | 39.59188 | 19.91440 | 11 ft | 12 kts | 170° |
| 2026-04-30 05:07 | 39.59169 | 19.91465 | 11 ft | 1 kts | 87° |
| 2026-04-30 05:07 | 39.59174 | 19.91468 | 13 ft | 1 kts | 27° |
| 2026-04-30 05:08 | 39.59210 | 19.91464 | 11 ft | 12 kts | 351° |
| 2026-04-30 05:08 | 39.59537 | 19.91393 | 12 ft | 86 kts | 349° |
| 2026-04-30 05:08 | 39.60358 | 19.91172 | 16 ft | 152 kts | 349° |
| 2026-04-30 05:08 | 39.61472 | 19.90894 | 559 ft | 166 kts | 348° |
| 2026-04-30 05:09 | 39.62633 | 19.90584 | 1291 ft | 175 kts | 348° |
| 2026-04-30 05:09 | 39.63833 | 19.90265 | 2070 ft | 184 kts | 347° |
| 2026-04-30 05:09 | 39.65046 | 19.89433 | 2399 ft | 212 kts | 312° |
| 2026-04-30 05:09 | 39.65670 | 19.87708 | 2935 ft | 217 kts | 274° |
| 2026-04-30 05:10 | 39.65671 | 19.85743 | 3619 ft | 220 kts | 268° |
| 2026-04-30 05:10 | 39.65634 | 19.83734 | 4374 ft | 223 kts | 268° |
| 2026-04-30 05:10 | 39.65593 | 19.81730 | 5290 ft | 222 kts | 268° |
| 2026-04-30 05:10 | 39.65842 | 19.79744 | 6044 ft | 229 kts | 296° |
| 2026-04-30 05:11 | 39.66805 | 19.77981 | 6438 ft | 254 kts | 310° |
| 2026-04-30 05:11 | 39.68068 | 19.76239 | 6942 ft | 270 kts | 313° |
| 2026-04-30 05:11 | 39.69400 | 19.74486 | 7752 ft | 275 kts | 314° |
| 2026-04-30 05:11 | 39.70750 | 19.72709 | 8622 ft | 278 kts | 314° |
| 2026-04-30 05:12 | 39.72108 | 19.70905 | 9491 ft | 280 kts | 313° |
| 2026-04-30 05:12 | 39.73472 | 19.69075 | 10309 ft | 284 kts | 313° |
| 2026-04-30 05:12 | 39.74891 | 19.67156 | 10625 ft | 307 kts | 313° |
| 2026-04-30 05:12 | 39.76407 | 19.65098 | 10826 ft | 331 kts | 313° |
| 2026-04-30 05:13 | 39.78051 | 19.62858 | 11340 ft | 342 kts | 313° |
| 2026-04-30 05:13 | 39.79704 | 19.60604 | 12098 ft | 346 kts | 313° |
| 2026-04-30 05:13 | 39.81344 | 19.58363 | 12894 ft | 348 kts | 313° |
| 2026-04-30 05:13 | 39.83014 | 19.56079 | 13679 ft | 351 kts | 312° |
| 2026-04-30 05:14 | 39.84709 | 19.53759 | 14363 ft | 355 kts | 312° |
| 2026-04-30 05:14 | 39.86420 | 19.51432 | 15050 ft | 358 kts | 313° |
| 2026-04-30 05:14 | 39.88160 | 19.49097 | 15742 ft | 360 kts | 313° |
| 2026-04-30 05:14 | 39.89915 | 19.46750 | 16421 ft | 363 kts | 313° |
| 2026-04-30 05:15 | 39.91685 | 19.44382 | 17096 ft | 366 kts | 313° |
| 2026-04-30 05:15 | 39.93468 | 19.41993 | 17778 ft | 369 kts | 313° |
| 2026-04-30 05:15 | 39.95266 | 19.39579 | 18414 ft | 373 kts | 313° |
| 2026-04-30 05:15 | 39.97079 | 19.37142 | 18977 ft | 376 kts | 313° |
| 2026-04-30 05:16 | 39.98905 | 19.34685 | 19540 ft | 379 kts | 313° |
| 2026-04-30 05:16 | 40.00744 | 19.32206 | 20104 ft | 382 kts | 313° |
| 2026-04-30 05:16 | 40.02597 | 19.29707 | 20641 ft | 385 kts | 313° |
| 2026-04-30 05:16 | 40.04463 | 19.27188 | 21177 ft | 388 kts | 313° |
| 2026-04-30 05:17 | 40.06348 | 19.24642 | 21716 ft | 391 kts | 313° |
| 2026-04-30 05:17 | 40.08244 | 19.22077 | 22244 ft | 394 kts | 313° |
| 2026-04-30 05:17 | 40.10152 | 19.19495 | 22764 ft | 397 kts | 313° |
| 2026-04-30 05:17 | 40.12079 | 19.16885 | 23260 ft | 400 kts | 313° |
| 2026-04-30 05:18 | 40.14017 | 19.14256 | 23733 ft | 403 kts | 313° |
| 2026-04-30 05:18 | 40.15967 | 19.11610 | 24165 ft | 405 kts | 313° |
| 2026-04-30 05:18 | 40.17935 | 19.08937 | 24616 ft | 407 kts | 313° |
| 2026-04-30 05:18 | 40.19873 | 19.06303 | 25041 ft | 408 kts | 313° |
| 2026-04-30 05:19 | 40.21852 | 19.03611 | 25460 ft | 410 kts | 313° |
| 2026-04-30 05:19 | 40.23835 | 19.00910 | 25879 ft | 412 kts | 313° |
| 2026-04-30 05:19 | 40.25823 | 18.98202 | 26269 ft | 414 kts | 313° |
| 2026-04-30 05:19 | 40.27831 | 18.95469 | 26650 ft | 416 kts | 313° |
| 2026-04-30 05:20 | 40.29848 | 18.92721 | 27042 ft | 418 kts | 313° |
| 2026-04-30 05:20 | 40.31186 | 18.90897 | 27297 ft | 419 kts | 313° |
| 2026-04-30 05:20 | 40.33879 | 18.87224 | 27783 ft | 422 kts | 313° |
| 2026-04-30 05:20 | 40.35922 | 18.84433 | 28135 ft | 424 kts | 313° |
| 2026-04-30 05:21 | 40.37274 | 18.82585 | 28374 ft | 425 kts | 313° |
| 2026-04-30 05:21 | 40.39326 | 18.79777 | 28756 ft | 427 kts | 313° |
| 2026-04-30 05:21 | 40.41389 | 18.76950 | 29079 ft | 429 kts | 312° |
| 2026-04-30 05:21 | 40.43458 | 18.74114 | 29400 ft | 431 kts | 312° |
| 2026-04-30 05:22 | 40.45532 | 18.71267 | 29729 ft | 432 kts | 312° |
| 2026-04-30 05:22 | 40.47614 | 18.68408 | 30096 ft | 433 kts | 312° |
| 2026-04-30 05:22 | 40.49693 | 18.65549 | 30505 ft | 430 kts | 312° |
| 2026-04-30 05:22 | 40.52431 | 18.61781 | 31057 ft | 427 kts | 312° |
| 2026-04-30 05:23 | 40.53793 | 18.59905 | 31296 ft | 427 kts | 312° |
| 2026-04-30 05:23 | 40.55847 | 18.57073 | 31638 ft | 426 kts | 312° |
| 2026-04-30 05:23 | 40.57891 | 18.54251 | 31974 ft | 426 kts | 312° |
| 2026-04-30 05:23 | 40.59932 | 18.51431 | 32334 ft | 425 kts | 312° |
| 2026-04-30 05:24 | 40.61969 | 18.48615 | 32688 ft | 424 kts | 312° |
| 2026-04-30 05:24 | 40.63974 | 18.45839 | 33023 ft | 423 kts | 312° |
| 2026-04-30 05:24 | 40.65998 | 18.43034 | 33357 ft | 422 kts | 312° |
| 2026-04-30 05:24 | 40.68024 | 18.40224 | 33685 ft | 421 kts | 312° |
| 2026-04-30 05:25 | 40.70049 | 18.37414 | 33988 ft | 421 kts | 312° |
| 2026-04-30 05:25 | 40.72060 | 18.34619 | 34279 ft | 420 kts | 312° |
| 2026-04-30 05:25 | 40.74070 | 18.31824 | 34574 ft | 419 kts | 312° |
| 2026-04-30 05:25 | 40.76052 | 18.29064 | 34838 ft | 418 kts | 312° |
| 2026-04-30 05:26 | 40.78053 | 18.26276 | 35099 ft | 417 kts | 312° |
| 2026-04-30 05:26 | 40.80046 | 18.23497 | 35381 ft | 416 kts | 312° |
| 2026-04-30 05:26 | 40.82034 | 18.20722 | 35644 ft | 415 kts | 312° |
| 2026-04-30 05:26 | 40.84019 | 18.17947 | 35891 ft | 415 kts | 312° |
| 2026-04-30 05:27 | 40.85998 | 18.15179 | 36135 ft | 414 kts | 311° |
| 2026-04-30 05:27 | 40.87973 | 18.12413 | 36403 ft | 413 kts | 311° |
| 2026-04-30 05:27 | 40.89945 | 18.09650 | 36658 ft | 412 kts | 311° |
| 2026-04-30 05:27 | 40.91883 | 18.06934 | 36886 ft | 411 kts | 311° |
| 2026-04-30 05:28 | 40.93848 | 18.04175 | 37124 ft | 410 kts | 311° |
| 2026-04-30 05:28 | 40.95799 | 18.01425 | 37370 ft | 409 kts | 311° |
| 2026-04-30 05:28 | 40.97746 | 17.98675 | 37597 ft | 408 kts | 311° |
| 2026-04-30 05:28 | 40.99691 | 17.95923 | 37801 ft | 408 kts | 311° |
| 2026-04-30 05:29 | 41.01632 | 17.93175 | 37978 ft | 408 kts | 311° |
| 2026-04-30 05:29 | 41.03579 | 17.90414 | 38034 ft | 410 kts | 311° |
| 2026-04-30 05:29 | 41.07447 | 17.84927 | 38045 ft | 409 kts | 311° |
| 2026-04-30 05:30 | 41.11328 | 17.79410 | 38048 ft | 407 kts | 311° |
| 2026-04-30 05:30 | 41.15192 | 17.73908 | 38043 ft | 406 kts | 311° |
| 2026-04-30 05:31 | 41.19018 | 17.68449 | 38051 ft | 405 kts | 311° |
| 2026-04-30 05:31 | 41.22861 | 17.62976 | 38051 ft | 405 kts | 311° |
| 2026-04-30 05:32 | 41.26711 | 17.57509 | 38038 ft | 405 kts | 311° |
| 2026-04-30 05:32 | 41.30540 | 17.52061 | 38062 ft | 405 kts | 311° |
| 2026-04-30 05:33 | 41.34398 | 17.46560 | 38053 ft | 406 kts | 311° |
| 2026-04-30 05:33 | 41.38257 | 17.41045 | 38063 ft | 407 kts | 311° |
| 2026-04-30 05:34 | 41.42128 | 17.35500 | 38069 ft | 408 kts | 311° |
| 2026-04-30 05:34 | 41.45976 | 17.29980 | 38056 ft | 409 kts | 311° |
| 2026-04-30 05:35 | 41.49852 | 17.24409 | 38073 ft | 409 kts | 311° |
| 2026-04-30 05:35 | 41.53702 | 17.18864 | 38066 ft | 409 kts | 311° |
| 2026-04-30 05:36 | 41.57568 | 17.13286 | 38063 ft | 408 kts | 311° |
| 2026-04-30 05:36 | 41.61412 | 17.07729 | 38061 ft | 406 kts | 311° |
| 2026-04-30 05:37 | 41.65238 | 17.02189 | 38064 ft | 404 kts | 311° |
| 2026-04-30 05:37 | 41.69016 | 16.96707 | 38068 ft | 402 kts | 310° |
| 2026-04-30 05:38 | 41.72802 | 16.91203 | 38070 ft | 400 kts | 310° |
| 2026-04-30 05:38 | 41.76567 | 16.85719 | 38072 ft | 399 kts | 310° |
| 2026-04-30 05:39 | 41.80320 | 16.80243 | 38072 ft | 398 kts | 310° |
| 2026-04-30 05:39 | 41.84040 | 16.74804 | 38068 ft | 397 kts | 310° |
| 2026-04-30 05:40 | 41.87762 | 16.69353 | 38073 ft | 395 kts | 310° |
| 2026-04-30 05:40 | 41.91475 | 16.63905 | 38074 ft | 394 kts | 310° |
| 2026-04-30 05:41 | 41.95147 | 16.58506 | 38076 ft | 393 kts | 310° |
| 2026-04-30 05:41 | 41.98839 | 16.53068 | 38080 ft | 393 kts | 310° |
| 2026-04-30 05:42 | 42.02524 | 16.47631 | 38083 ft | 393 kts | 310° |
| 2026-04-30 05:42 | 42.06211 | 16.42180 | 38082 ft | 394 kts | 310° |
| 2026-04-30 05:43 | 42.09902 | 16.36713 | 38085 ft | 395 kts | 310° |
| 2026-04-30 05:43 | 42.13574 | 16.31265 | 38085 ft | 395 kts | 310° |
| 2026-04-30 05:44 | 42.17269 | 16.25770 | 38084 ft | 396 kts | 310° |
| 2026-04-30 05:44 | 42.20996 | 16.20219 | 38088 ft | 397 kts | 310° |
| 2026-04-30 05:45 | 42.24676 | 16.14728 | 38090 ft | 397 kts | 310° |
| 2026-04-30 05:45 | 42.28176 | 16.08992 | 38095 ft | 395 kts | 303° |
| 2026-04-30 05:46 | 42.31327 | 16.02903 | 38091 ft | 395 kts | 303° |
| 2026-04-30 05:46 | 42.34464 | 15.96802 | 38095 ft | 395 kts | 303° |
| 2026-04-30 05:47 | 42.37610 | 15.90700 | 38101 ft | 395 kts | 303° |
| 2026-04-30 05:47 | 42.40756 | 15.84604 | 38094 ft | 395 kts | 303° |
| 2026-04-30 05:48 | 42.43893 | 15.78520 | 38099 ft | 394 kts | 303° |
| 2026-04-30 05:48 | 42.47023 | 15.72439 | 38103 ft | 393 kts | 303° |
| 2026-04-30 05:49 | 42.50144 | 15.66362 | 38103 ft | 392 kts | 303° |
| 2026-04-30 05:49 | 42.53255 | 15.60294 | 38106 ft | 392 kts | 303° |
| 2026-04-30 05:50 | 42.56359 | 15.54225 | 38109 ft | 391 kts | 303° |
| 2026-04-30 05:50 | 42.59458 | 15.48155 | 38113 ft | 391 kts | 303° |
| 2026-04-30 05:51 | 42.62551 | 15.42085 | 38118 ft | 391 kts | 303° |
| 2026-04-30 05:51 | 42.65640 | 15.36009 | 38117 ft | 391 kts | 303° |
| 2026-04-30 05:52 | 42.68729 | 15.29921 | 38120 ft | 391 kts | 303° |
| 2026-04-30 05:52 | 42.71815 | 15.23826 | 38124 ft | 392 kts | 303° |
| 2026-04-30 05:53 | 42.74883 | 15.17756 | 38125 ft | 392 kts | 303° |
| 2026-04-30 05:53 | 42.77968 | 15.11638 | 38127 ft | 392 kts | 303° |
| 2026-04-30 05:54 | 42.81054 | 15.05507 | 38131 ft | 393 kts | 303° |
| 2026-04-30 05:54 | 42.84138 | 14.99366 | 38134 ft | 393 kts | 303° |
| 2026-04-30 05:55 | 42.87220 | 14.93217 | 38143 ft | 393 kts | 303° |
| 2026-04-30 05:55 | 42.90302 | 14.87056 | 38144 ft | 393 kts | 303° |
| 2026-04-30 05:56 | 42.93381 | 14.80887 | 38154 ft | 393 kts | 303° |
| 2026-04-30 05:56 | 42.96455 | 14.74715 | 38152 ft | 393 kts | 302° |
| 2026-04-30 05:57 | 42.99528 | 14.68534 | 38161 ft | 393 kts | 302° |
| 2026-04-30 05:57 | 43.02593 | 14.62354 | 38164 ft | 393 kts | 302° |
| 2026-04-30 05:58 | 43.05647 | 14.56184 | 38166 ft | 391 kts | 302° |
| 2026-04-30 05:58 | 43.08687 | 14.50030 | 38170 ft | 389 kts | 302° |
| 2026-04-30 05:59 | 43.11712 | 14.43894 | 38173 ft | 388 kts | 302° |
| 2026-04-30 05:59 | 43.14723 | 14.37773 | 38179 ft | 387 kts | 302° |
| 2026-04-30 06:00 | 43.17727 | 14.31655 | 38182 ft | 387 kts | 302° |
| 2026-04-30 06:00 | 43.20729 | 14.25526 | 38188 ft | 387 kts | 302° |
| 2026-04-30 06:01 | 43.23733 | 14.19381 | 38197 ft | 388 kts | 302° |
| 2026-04-30 06:01 | 43.26742 | 14.13214 | 38194 ft | 390 kts | 302° |
| 2026-04-30 06:02 | 43.29758 | 14.07018 | 38194 ft | 391 kts | 302° |
| 2026-04-30 06:02 | 43.32781 | 14.00795 | 38192 ft | 392 kts | 302° |
| 2026-04-30 06:03 | 43.35807 | 13.94552 | 38196 ft | 393 kts | 302° |
| 2026-04-30 06:03 | 43.38812 | 13.88342 | 38197 ft | 393 kts | 302° |
| 2026-04-30 06:04 | 43.41838 | 13.82074 | 38199 ft | 393 kts | 302° |
| 2026-04-30 06:05 | 43.46361 | 13.72679 | 38193 ft | 391 kts | 302° |
| 2026-04-30 06:05 | 43.49349 | 13.66455 | 38205 ft | 389 kts | 302° |
| 2026-04-30 06:06 | 43.52343 | 13.60206 | 38214 ft | 392 kts | 302° |
| 2026-04-30 06:06 | 43.55353 | 13.53911 | 38222 ft | 395 kts | 302° |
| 2026-04-30 06:07 | 43.58386 | 13.47555 | 38212 ft | 398 kts | 302° |
| 2026-04-30 06:07 | 43.60864 | 13.42202 | 38208 ft | 398 kts | 301° |
| 2026-04-30 06:08 | 43.63778 | 13.35714 | 38209 ft | 398 kts | 301° |
| 2026-04-30 06:08 | 43.66686 | 13.29222 | 38210 ft | 396 kts | 301° |
| 2026-04-30 06:09 | 43.69582 | 13.22763 | 38222 ft | 395 kts | 301° |
| 2026-04-30 06:09 | 43.72475 | 13.16310 | 38213 ft | 394 kts | 301° |
| 2026-04-30 06:10 | 43.75353 | 13.09881 | 38205 ft | 392 kts | 301° |
| 2026-04-30 06:10 | 43.78213 | 13.03477 | 38213 ft | 390 kts | 301° |
| 2026-04-30 06:11 | 43.81065 | 12.97078 | 38213 ft | 389 kts | 301° |
| 2026-04-30 06:11 | 43.83902 | 12.90699 | 38229 ft | 389 kts | 301° |
| 2026-04-30 06:12 | 43.86719 | 12.84348 | 38234 ft | 390 kts | 301° |
| 2026-04-30 06:12 | 43.89557 | 12.77938 | 38235 ft | 391 kts | 301° |
| 2026-04-30 06:13 | 43.92387 | 12.71533 | 38244 ft | 392 kts | 301° |
| 2026-04-30 06:13 | 43.95242 | 12.65055 | 38238 ft | 394 kts | 301° |
| 2026-04-30 06:14 | 43.98121 | 12.58508 | 38242 ft | 396 kts | 301° |
| 2026-04-30 06:14 | 44.00970 | 12.52015 | 38244 ft | 397 kts | 301° |
| 2026-04-30 06:15 | 44.03846 | 12.45446 | 38239 ft | 398 kts | 301° |
| 2026-04-30 06:15 | 44.06725 | 12.38854 | 38241 ft | 399 kts | 301° |
| 2026-04-30 06:16 | 44.09607 | 12.32242 | 38263 ft | 400 kts | 301° |
| 2026-04-30 06:16 | 44.12484 | 12.25622 | 38265 ft | 400 kts | 301° |
| 2026-04-30 06:17 | 44.15362 | 12.18990 | 38237 ft | 400 kts | 301° |
| 2026-04-30 06:17 | 44.18229 | 12.12364 | 38234 ft | 399 kts | 301° |
| 2026-04-30 06:18 | 44.21091 | 12.05736 | 38238 ft | 399 kts | 301° |
| 2026-04-30 06:18 | 44.23944 | 11.99112 | 38242 ft | 398 kts | 301° |
| 2026-04-30 06:19 | 44.26800 | 11.92466 | 37840 ft | 399 kts | 301° |
| 2026-04-30 06:19 | 44.28216 | 11.89167 | 37426 ft | 393 kts | 301° |
| 2026-04-30 06:19 | 44.29607 | 11.85922 | 37077 ft | 387 kts | 300° |
| 2026-04-30 06:19 | 44.30982 | 11.82710 | 36703 ft | 383 kts | 300° |
| 2026-04-30 06:20 | 44.32338 | 11.79539 | 36316 ft | 378 kts | 300° |
| 2026-04-30 06:20 | 44.33676 | 11.76405 | 35948 ft | 374 kts | 300° |
| 2026-04-30 06:20 | 44.35000 | 11.73302 | 35563 ft | 370 kts | 300° |
| 2026-04-30 06:20 | 44.36313 | 11.70222 | 35187 ft | 366 kts | 300° |
| 2026-04-30 06:21 | 44.37608 | 11.67179 | 34820 ft | 363 kts | 300° |
| 2026-04-30 06:21 | 44.38893 | 11.64159 | 34454 ft | 359 kts | 300° |
| 2026-04-30 06:21 | 44.40147 | 11.61207 | 34072 ft | 356 kts | 300° |
| 2026-04-30 06:21 | 44.41406 | 11.58240 | 33692 ft | 351 kts | 300° |
| 2026-04-30 06:22 | 44.42648 | 11.55310 | 33327 ft | 347 kts | 300° |
| 2026-04-30 06:22 | 44.43870 | 11.52424 | 32979 ft | 343 kts | 300° |
| 2026-04-30 06:22 | 44.45077 | 11.49570 | 32628 ft | 339 kts | 300° |
| 2026-04-30 06:22 | 44.46272 | 11.46744 | 32274 ft | 335 kts | 300° |
| 2026-04-30 06:23 | 44.47452 | 11.43948 | 31930 ft | 332 kts | 300° |
| 2026-04-30 06:23 | 44.48620 | 11.41178 | 31591 ft | 329 kts | 300° |
| 2026-04-30 06:23 | 44.49776 | 11.38436 | 31243 ft | 326 kts | 300° |
| 2026-04-30 06:23 | 44.50923 | 11.35712 | 30912 ft | 323 kts | 300° |
| 2026-04-30 06:24 | 44.52059 | 11.33013 | 30583 ft | 320 kts | 300° |
| 2026-04-30 06:24 | 44.53170 | 11.30368 | 30243 ft | 318 kts | 299° |
| 2026-04-30 06:24 | 44.54163 | 11.27622 | 29900 ft | 314 kts | 293° |
| 2026-04-30 06:24 | 44.54987 | 11.24816 | 29626 ft | 312 kts | 292° |
| 2026-04-30 06:25 | 44.55808 | 11.21949 | 29369 ft | 322 kts | 292° |
| 2026-04-30 06:25 | 44.56648 | 11.19007 | 29091 ft | 326 kts | 292° |
| 2026-04-30 06:25 | 44.57607 | 11.16162 | 28689 ft | 320 kts | 302° |
| 2026-04-30 06:25 | 44.58913 | 11.13655 | 28047 ft | 318 kts | 309° |
| 2026-04-30 06:26 | 44.60447 | 11.11410 | 27277 ft | 320 kts | 317° |
| 2026-04-30 06:26 | 44.62170 | 11.09404 | 26587 ft | 321 kts | 319° |
| 2026-04-30 06:26 | 44.63921 | 11.07461 | 25970 ft | 320 kts | 320° |
| 2026-04-30 06:26 | 44.65653 | 11.05562 | 25392 ft | 318 kts | 321° |
| 2026-04-30 06:27 | 44.67393 | 11.03652 | 24807 ft | 317 kts | 321° |
| 2026-04-30 06:27 | 44.69121 | 11.01746 | 24236 ft | 315 kts | 321° |
| 2026-04-30 06:27 | 44.70846 | 10.99835 | 23636 ft | 315 kts | 321° |
| 2026-04-30 06:27 | 44.72562 | 10.97929 | 23019 ft | 312 kts | 321° |
| 2026-04-30 06:28 | 44.74259 | 10.96038 | 22426 ft | 310 kts | 321° |
| 2026-04-30 06:28 | 44.75923 | 10.94180 | 21852 ft | 308 kts | 321° |
| 2026-04-30 06:28 | 44.77595 | 10.92310 | 21282 ft | 306 kts | 321° |
| 2026-04-30 06:28 | 44.79255 | 10.90451 | 20721 ft | 304 kts | 321° |
| 2026-04-30 06:29 | 44.80903 | 10.88604 | 20229 ft | 301 kts | 321° |
| 2026-04-30 06:29 | 44.82519 | 10.86791 | 19834 ft | 294 kts | 321° |
| 2026-04-30 06:29 | 44.84101 | 10.85014 | 19506 ft | 287 kts | 321° |
| 2026-04-30 06:29 | 44.85645 | 10.83279 | 19187 ft | 280 kts | 321° |
| 2026-04-30 06:30 | 44.87165 | 10.81569 | 18899 ft | 280 kts | 321° |
| 2026-04-30 06:30 | 44.88698 | 10.79843 | 18596 ft | 283 kts | 322° |
| 2026-04-30 06:30 | 44.90257 | 10.78088 | 18256 ft | 291 kts | 322° |
| 2026-04-30 06:30 | 44.91859 | 10.76282 | 17908 ft | 298 kts | 322° |
| 2026-04-30 06:31 | 44.93482 | 10.74451 | 17549 ft | 298 kts | 322° |
| 2026-04-30 06:31 | 44.95072 | 10.72656 | 17207 ft | 296 kts | 322° |
| 2026-04-30 06:31 | 44.96695 | 10.70822 | 16885 ft | 294 kts | 322° |
| 2026-04-30 06:31 | 44.98267 | 10.69044 | 16560 ft | 292 kts | 322° |
| 2026-04-30 06:32 | 44.99851 | 10.67252 | 16239 ft | 291 kts | 322° |
| 2026-04-30 06:32 | 45.01423 | 10.65472 | 15923 ft | 289 kts | 322° |
| 2026-04-30 06:32 | 45.02988 | 10.63699 | 15604 ft | 288 kts | 322° |
| 2026-04-30 06:32 | 45.04552 | 10.61924 | 15286 ft | 286 kts | 322° |
| 2026-04-30 06:33 | 45.06104 | 10.60163 | 14976 ft | 285 kts | 322° |
| 2026-04-30 06:33 | 45.07619 | 10.58444 | 14671 ft | 285 kts | 322° |
| 2026-04-30 06:33 | 45.09162 | 10.56691 | 14354 ft | 284 kts | 323° |
| 2026-04-30 06:33 | 45.10700 | 10.54941 | 14033 ft | 283 kts | 323° |
| 2026-04-30 06:34 | 45.12238 | 10.53191 | 13680 ft | 283 kts | 323° |
| 2026-04-30 06:34 | 45.13771 | 10.51446 | 13348 ft | 282 kts | 323° |
| 2026-04-30 06:34 | 45.15294 | 10.49710 | 13022 ft | 280 kts | 323° |
| 2026-04-30 06:34 | 45.16807 | 10.47983 | 12708 ft | 279 kts | 323° |
| 2026-04-30 06:35 | 45.18313 | 10.46264 | 12399 ft | 277 kts | 323° |
| 2026-04-30 06:35 | 45.19813 | 10.44552 | 12087 ft | 276 kts | 323° |
| 2026-04-30 06:35 | 45.21305 | 10.42846 | 11775 ft | 275 kts | 323° |
| 2026-04-30 06:35 | 45.22791 | 10.41148 | 11466 ft | 274 kts | 323° |
| 2026-04-30 06:36 | 45.24273 | 10.39452 | 11160 ft | 273 kts | 323° |
| 2026-04-30 06:36 | 45.25750 | 10.37761 | 10851 ft | 272 kts | 323° |
| 2026-04-30 06:36 | 45.27224 | 10.36072 | 10549 ft | 272 kts | 323° |
| 2026-04-30 06:36 | 45.28687 | 10.34394 | 10375 ft | 267 kts | 323° |
| 2026-04-30 06:37 | 45.30126 | 10.32742 | 10098 ft | 266 kts | 323° |
| 2026-04-30 06:37 | 45.31562 | 10.31093 | 9803 ft | 265 kts | 323° |
| 2026-04-30 06:37 | 45.32993 | 10.29449 | 9496 ft | 265 kts | 323° |
| 2026-04-30 06:37 | 45.34426 | 10.27800 | 9141 ft | 265 kts | 323° |
| 2026-04-30 06:38 | 45.35859 | 10.26154 | 8830 ft | 265 kts | 323° |
| 2026-04-30 06:38 | 45.37293 | 10.24503 | 8524 ft | 265 kts | 323° |
| 2026-04-30 06:38 | 45.38726 | 10.22853 | 8197 ft | 266 kts | 323° |
| 2026-04-30 06:38 | 45.40165 | 10.21195 | 7870 ft | 267 kts | 323° |
| 2026-04-30 06:39 | 45.41596 | 10.19544 | 7544 ft | 269 kts | 322° |
| 2026-04-30 06:39 | 45.43052 | 10.17862 | 7223 ft | 271 kts | 322° |
| 2026-04-30 06:39 | 45.44522 | 10.16165 | 6888 ft | 273 kts | 322° |
| 2026-04-30 06:39 | 45.46004 | 10.14450 | 6548 ft | 276 kts | 322° |
| 2026-04-30 06:40 | 45.47497 | 10.12722 | 6173 ft | 278 kts | 322° |
| 2026-04-30 06:40 | 45.49009 | 10.10972 | 5822 ft | 280 kts | 322° |
| 2026-04-30 06:40 | 45.50515 | 10.09225 | 5626 ft | 276 kts | 322° |
| 2026-04-30 06:40 | 45.51992 | 10.07511 | 5470 ft | 271 kts | 322° |
| 2026-04-30 06:41 | 45.53432 | 10.05840 | 5324 ft | 261 kts | 322° |
| 2026-04-30 06:41 | 45.54804 | 10.04246 | 5207 ft | 248 kts | 322° |
| 2026-04-30 06:41 | 45.56105 | 10.02734 | 5116 ft | 233 kts | 322° |
| 2026-04-30 06:41 | 45.57322 | 10.01320 | 4920 ft | 222 kts | 322° |
| 2026-04-30 06:42 | 45.58542 | 9.99898 | 4496 ft | 229 kts | 323° |
| 2026-04-30 06:42 | 45.59777 | 9.98459 | 4185 ft | 228 kts | 323° |
| 2026-04-30 06:42 | 45.60986 | 9.97055 | 3959 ft | 219 kts | 323° |
| 2026-04-30 06:42 | 45.61947 | 9.95437 | 3722 ft | 212 kts | 293° |
| 2026-04-30 06:43 | 45.62449 | 9.93534 | 3541 ft | 203 kts | 291° |
| 2026-04-30 06:43 | 45.62904 | 9.91649 | 3331 ft | 198 kts | 285° |
| 2026-04-30 06:43 | 45.63275 | 9.89762 | 3168 ft | 195 kts | 283° |
| 2026-04-30 06:43 | 45.63621 | 9.87875 | 3015 ft | 198 kts | 283° |
| 2026-04-30 06:44 | 45.63968 | 9.85966 | 2748 ft | 198 kts | 284° |
| 2026-04-30 06:44 | 45.64306 | 9.84123 | 2516 ft | 190 kts | 284° |
| 2026-04-30 06:44 | 45.64632 | 9.82363 | 2237 ft | 177 kts | 284° |
| 2026-04-30 06:44 | 45.64932 | 9.80726 | 2012 ft | 166 kts | 284° |
| 2026-04-30 06:45 | 45.65214 | 9.79158 | 1757 ft | 159 kts | 284° |
| 2026-04-30 06:45 | 45.65501 | 9.77661 | 1603 ft | 153 kts | 284° |
| 2026-04-30 06:45 | 45.65766 | 9.76172 | 1367 ft | 158 kts | 283° |
| 2026-04-30 06:45 | 45.66051 | 9.74661 | 1144 ft | 157 kts | 285° |
| 2026-04-30 06:46 | 45.66326 | 9.73162 | 912 ft | 153 kts | 284° |
| 2026-04-30 06:46 | 45.66598 | 9.71714 | 774 ft | 144 kts | 284° |
| 2026-04-30 06:46 | 45.66819 | 9.70496 | 778 ft | 100 kts | 284° |
| 2026-04-30 06:46 | 45.66954 | 9.69774 | 785 ft | 64 kts | 284° |
| 2026-04-30 06:47 | 45.67041 | 9.69305 | 786 ft | 37 kts | 285° |
| 2026-04-30 06:47 | 45.67018 | 9.69014 | 790 ft | 15 kts | 215° |
| 2026-04-30 06:47 | 45.67015 | 9.69010 | 790 ft | 0 kts | 226° |
| 2026-04-30 06:47 | 45.67017 | 9.69003 | 790 ft | 1 kts | 292° |
| 2026-04-30 06:48 | 45.67035 | 9.68950 | 791 ft | 11 kts | 276° |
| 2026-04-30 06:48 | 45.66991 | 9.68878 | 791 ft | 10 kts | 188° |
| 2026-04-30 06:48 | 45.66925 | 9.68914 | 791 ft | 11 kts | 126° |
| 2026-04-30 06:48 | 45.66910 | 9.69047 | 790 ft | 17 kts | 97° |
| 2026-04-30 06:49 | 45.66886 | 9.69238 | 788 ft | 22 kts | 102° |
| 2026-04-30 06:49 | 45.66845 | 9.69465 | 786 ft | 24 kts | 108° |
| 2026-04-30 06:49 | 45.66802 | 9.69689 | 785 ft | 23 kts | 104° |
| 2026-04-30 06:49 | 45.66766 | 9.69887 | 783 ft | 18 kts | 107° |
| 2026-04-30 06:50 | 45.66726 | 9.69955 | 783 ft | 5 kts | 182° |
| 2026-04-30 06:50 | 45.66691 | 9.69941 | 783 ft | 5 kts | 196° |
| 2026-04-30 06:50 | 45.66661 | 9.69929 | 783 ft | 3 kts | 195° |
| 2026-04-30 06:50 | 45.66650 | 9.69925 | 783 ft | 0 kts | 193° |